BCY26F LFPO-EGLC
Flight info
| Callsign | BCY26F |
|---|---|
| Flight time | N/A |
| Altitude | 26000 |
| Route | ATREX DCT VESAN DCT RATUK L613 SOVAT |
| Aircraft | RJ85/M-SDFGIRWY/LB1 |
Departure
| Time | N/A |
|---|---|
| Airport | Paris-Orly Airport (LFPO) |
Arrival
| Time | 2026-04-30 11:09 |
|---|---|
| Airport | London City Airport (EGLC) |
| Time | Latitude | Longitude | Altitude | Speed | Heading |
|---|---|---|---|---|---|
| 2026-04-30 10:35 | 49.42298 | 2.14424 | 26200 ft | 423 kts | 25° |
| 2026-04-30 10:35 | 49.45040 | 2.16133 | 26217 ft | 427 kts | 24° |
| 2026-04-30 10:36 | 49.47807 | 2.17838 | 26223 ft | 427 kts | 24° |
| 2026-04-30 10:36 | 49.50566 | 2.19525 | 26224 ft | 426 kts | 24° |
| 2026-04-30 10:36 | 49.53286 | 2.21192 | 26225 ft | 425 kts | 24° |
| 2026-04-30 10:36 | 49.56070 | 2.22896 | 26224 ft | 425 kts | 24° |
| 2026-04-30 10:37 | 49.58784 | 2.24561 | 26215 ft | 424 kts | 24° |
| 2026-04-30 10:37 | 49.61530 | 2.26250 | 26221 ft | 425 kts | 24° |
| 2026-04-30 10:37 | 49.64284 | 2.27949 | 26219 ft | 424 kts | 24° |
| 2026-04-30 10:37 | 49.67030 | 2.29645 | 26213 ft | 424 kts | 24° |
| 2026-04-30 10:38 | 49.69772 | 2.31346 | 26218 ft | 425 kts | 24° |
| 2026-04-30 10:38 | 49.72527 | 2.33066 | 26217 ft | 425 kts | 24° |
| 2026-04-30 10:38 | 49.75282 | 2.34577 | 26219 ft | 427 kts | 14° |
| 2026-04-30 10:38 | 49.78252 | 2.34769 | 26243 ft | 431 kts | 356° |
| 2026-04-30 10:39 | 49.81250 | 2.34264 | 26243 ft | 432 kts | 355° |
| 2026-04-30 10:39 | 49.84212 | 2.33426 | 26235 ft | 434 kts | 348° |
| 2026-04-30 10:39 | 49.87115 | 2.32075 | 26229 ft | 435 kts | 343° |
| 2026-04-30 10:39 | 49.89970 | 2.30462 | 26227 ft | 436 kts | 341° |
| 2026-04-30 10:40 | 49.92808 | 2.28752 | 26225 ft | 436 kts | 340° |
| 2026-04-30 10:40 | 49.95594 | 2.27042 | 26223 ft | 436 kts | 340° |
| 2026-04-30 10:40 | 49.98429 | 2.25314 | 26219 ft | 437 kts | 340° |
| 2026-04-30 10:40 | 50.01274 | 2.23612 | 26224 ft | 437 kts | 341° |
| 2026-04-30 10:41 | 50.04121 | 2.21942 | 26229 ft | 437 kts | 341° |
| 2026-04-30 10:41 | 50.06984 | 2.20274 | 26234 ft | 438 kts | 341° |
| 2026-04-30 10:41 | 50.09846 | 2.18613 | 26229 ft | 438 kts | 341° |
| 2026-04-30 10:41 | 50.12665 | 2.16972 | 26226 ft | 439 kts | 341° |
| 2026-04-30 10:42 | 50.15536 | 2.15293 | 26224 ft | 439 kts | 341° |
| 2026-04-30 10:42 | 50.18397 | 2.13620 | 26228 ft | 439 kts | 341° |
| 2026-04-30 10:42 | 50.21267 | 2.11944 | 26229 ft | 440 kts | 341° |
| 2026-04-30 10:42 | 50.24136 | 2.10256 | 26225 ft | 440 kts | 341° |
| 2026-04-30 10:43 | 50.27008 | 2.08565 | 26238 ft | 440 kts | 341° |
| 2026-04-30 10:43 | 50.29884 | 2.06864 | 26236 ft | 440 kts | 341° |
| 2026-04-30 10:43 | 50.32746 | 2.05158 | 26245 ft | 441 kts | 339° |
| 2026-04-30 10:43 | 50.35512 | 2.03157 | 26247 ft | 443 kts | 334° |
| 2026-04-30 10:44 | 50.38213 | 2.00792 | 26256 ft | 445 kts | 328° |
| 2026-04-30 10:44 | 50.40734 | 1.97938 | 26244 ft | 447 kts | 322° |
| 2026-04-30 10:44 | 50.43131 | 1.94796 | 26243 ft | 449 kts | 320° |
| 2026-04-30 10:44 | 50.45449 | 1.91589 | 26248 ft | 449 kts | 319° |
| 2026-04-30 10:45 | 50.47783 | 1.88303 | 26225 ft | 450 kts | 319° |
| 2026-04-30 10:45 | 50.50116 | 1.85017 | 25614 ft | 446 kts | 319° |
| 2026-04-30 10:45 | 50.52425 | 1.81792 | 25018 ft | 438 kts | 319° |
| 2026-04-30 10:45 | 50.54669 | 1.78674 | 24370 ft | 433 kts | 320° |
| 2026-04-30 10:46 | 50.56934 | 1.75561 | 23735 ft | 430 kts | 320° |
| 2026-04-30 10:46 | 50.59178 | 1.72479 | 23010 ft | 426 kts | 320° |
| 2026-04-30 10:46 | 50.61402 | 1.69419 | 22285 ft | 422 kts | 321° |
| 2026-04-30 10:46 | 50.63600 | 1.66396 | 21563 ft | 418 kts | 320° |
| 2026-04-30 10:47 | 50.65774 | 1.63397 | 20855 ft | 413 kts | 320° |
| 2026-04-30 10:47 | 50.67932 | 1.60416 | 20165 ft | 409 kts | 320° |
| 2026-04-30 10:47 | 50.70064 | 1.57467 | 19492 ft | 406 kts | 320° |
| 2026-04-30 10:47 | 50.72180 | 1.54532 | 18827 ft | 402 kts | 320° |
| 2026-04-30 10:48 | 50.74248 | 1.51653 | 18131 ft | 399 kts | 320° |
| 2026-04-30 10:48 | 50.76323 | 1.48758 | 17399 ft | 396 kts | 321° |
| 2026-04-30 10:48 | 50.78390 | 1.45882 | 16681 ft | 394 kts | 321° |
| 2026-04-30 10:48 | 50.80439 | 1.43016 | 16000 ft | 391 kts | 320° |
| 2026-04-30 10:49 | 50.82468 | 1.40165 | 15376 ft | 387 kts | 320° |
| 2026-04-30 10:49 | 50.84445 | 1.37377 | 14999 ft | 373 kts | 320° |
| 2026-04-30 10:49 | 50.86444 | 1.34870 | 14635 ft | 357 kts | 334° |
| 2026-04-30 10:49 | 50.88689 | 1.33610 | 14285 ft | 340 kts | 352° |
| 2026-04-30 10:50 | 50.90990 | 1.33062 | 13920 ft | 328 kts | 359° |
| 2026-04-30 10:50 | 50.93240 | 1.32888 | 13511 ft | 320 kts | 4° |
| 2026-04-30 10:50 | 50.95449 | 1.32916 | 13114 ft | 315 kts | 6° |
| 2026-04-30 10:50 | 50.97622 | 1.32570 | 12818 ft | 317 kts | 345° |
| 2026-04-30 10:51 | 50.99481 | 1.30693 | 12573 ft | 323 kts | 315° |
| 2026-04-30 10:51 | 51.00704 | 1.27693 | 12340 ft | 326 kts | 296° |
| 2026-04-30 10:51 | 51.01608 | 1.24395 | 12099 ft | 326 kts | 291° |
| 2026-04-30 10:51 | 51.02439 | 1.21035 | 11859 ft | 326 kts | 293° |
| 2026-04-30 10:52 | 51.03346 | 1.17796 | 11618 ft | 323 kts | 297° |
| 2026-04-30 10:52 | 51.04382 | 1.14624 | 11368 ft | 322 kts | 300° |
| 2026-04-30 10:52 | 51.05513 | 1.11557 | 11126 ft | 321 kts | 303° |
| 2026-04-30 10:52 | 51.06701 | 1.08552 | 10886 ft | 320 kts | 304° |
| 2026-04-30 10:53 | 51.07922 | 1.05588 | 10661 ft | 320 kts | 305° |
| 2026-04-30 10:53 | 51.09154 | 1.02634 | 10435 ft | 320 kts | 305° |
| 2026-04-30 10:53 | 51.10374 | 0.99726 | 10227 ft | 318 kts | 306° |
| 2026-04-30 10:53 | 51.11604 | 0.96807 | 9978 ft | 316 kts | 305° |
| 2026-04-30 10:54 | 51.12822 | 0.93891 | 9726 ft | 315 kts | 305° |
| 2026-04-30 10:54 | 51.14023 | 0.90977 | 9478 ft | 313 kts | 305° |
| 2026-04-30 10:54 | 51.15402 | 0.88333 | 9229 ft | 309 kts | 321° |
| 2026-04-30 10:54 | 51.17023 | 0.86077 | 9002 ft | 307 kts | 321° |
| 2026-04-30 10:55 | 51.18562 | 0.83700 | 8882 ft | 308 kts | 316° |
| 2026-04-30 10:55 | 51.19985 | 0.81188 | 8791 ft | 309 kts | 313° |
| 2026-04-30 10:55 | 51.21347 | 0.78534 | 8658 ft | 309 kts | 310° |
| 2026-04-30 10:55 | 51.22647 | 0.75809 | 8543 ft | 308 kts | 309° |
| 2026-04-30 10:56 | 51.23907 | 0.73056 | 8416 ft | 308 kts | 308° |
| 2026-04-30 10:56 | 51.25148 | 0.70281 | 8291 ft | 307 kts | 307° |
| 2026-04-30 10:56 | 51.26381 | 0.67495 | 8174 ft | 307 kts | 307° |
| 2026-04-30 10:56 | 51.27608 | 0.64702 | 8064 ft | 307 kts | 308° |
| 2026-04-30 10:57 | 51.28842 | 0.61927 | 7939 ft | 306 kts | 308° |
| 2026-04-30 10:57 | 51.30085 | 0.59166 | 7812 ft | 306 kts | 308° |
| 2026-04-30 10:57 | 51.31325 | 0.56401 | 7692 ft | 306 kts | 308° |
| 2026-04-30 10:57 | 51.32566 | 0.53637 | 7576 ft | 305 kts | 308° |
| 2026-04-30 10:58 | 51.33799 | 0.50865 | 7432 ft | 306 kts | 308° |
| 2026-04-30 10:58 | 51.35030 | 0.48096 | 7159 ft | 305 kts | 308° |
| 2026-04-30 10:58 | 51.36251 | 0.45342 | 6756 ft | 298 kts | 308° |
| 2026-04-30 10:58 | 51.37426 | 0.42675 | 6231 ft | 285 kts | 309° |
| 2026-04-30 10:59 | 51.38529 | 0.40178 | 5940 ft | 265 kts | 309° |
| 2026-04-30 10:59 | 51.39550 | 0.37854 | 5514 ft | 252 kts | 310° |
| 2026-04-30 10:59 | 51.40568 | 0.35545 | 4915 ft | 250 kts | 310° |
| 2026-04-30 10:59 | 51.41571 | 0.33274 | 4412 ft | 250 kts | 310° |
| 2026-04-30 11:00 | 51.42563 | 0.30978 | 4164 ft | 255 kts | 303° |
| 2026-04-30 11:00 | 51.43063 | 0.28285 | 4043 ft | 251 kts | 278° |
| 2026-04-30 11:00 | 51.43195 | 0.26465 | 4016 ft | 247 kts | 276° |
| 2026-04-30 11:00 | 51.43330 | 0.23773 | 4011 ft | 236 kts | 275° |
| 2026-04-30 11:01 | 51.43419 | 0.21201 | 3824 ft | 228 kts | 273° |
| 2026-04-30 11:01 | 51.43485 | 0.18654 | 3529 ft | 228 kts | 272° |
| 2026-04-30 11:01 | 51.43535 | 0.16106 | 3218 ft | 229 kts | 272° |
| 2026-04-30 11:01 | 51.43594 | 0.13556 | 2943 ft | 230 kts | 272° |
| 2026-04-30 11:02 | 51.43651 | 0.11002 | 2694 ft | 229 kts | 273° |
| 2026-04-30 11:02 | 51.43722 | 0.08466 | 2480 ft | 226 kts | 274° |
| 2026-04-30 11:02 | 51.43787 | 0.06007 | 2284 ft | 222 kts | 274° |
| 2026-04-30 11:02 | 51.43853 | 0.03487 | 2116 ft | 231 kts | 275° |
| 2026-04-30 11:03 | 51.43936 | 0.00906 | 2039 ft | 230 kts | 276° |
| 2026-04-30 11:03 | 51.44022 | -0.01630 | 2015 ft | 225 kts | 276° |
| 2026-04-30 11:03 | 51.44111 | -0.04088 | 2004 ft | 220 kts | 276° |
| 2026-04-30 11:04 | 51.44423 | -0.08579 | 2043 ft | 185 kts | 307° |
| 2026-04-30 11:04 | 51.45285 | -0.09969 | 2046 ft | 174 kts | 331° |
| 2026-04-30 11:04 | 51.46269 | -0.10990 | 2040 ft | 161 kts | 345° |
| 2026-04-30 11:04 | 51.47232 | -0.11589 | 2013 ft | 135 kts | 355° |
| 2026-04-30 11:05 | 51.48056 | -0.11954 | 1963 ft | 115 kts | 1° |
| 2026-04-30 11:05 | 51.48842 | -0.12168 | 1959 ft | 111 kts | 15° |
| 2026-04-30 11:05 | 51.49330 | -0.11526 | 1958 ft | 93 kts | 67° |
| 2026-04-30 11:05 | 51.49674 | -0.10641 | 1971 ft | 93 kts | 58° |
| 2026-04-30 11:06 | 51.50044 | -0.09771 | 2012 ft | 94 kts | 62° |
| 2026-04-30 11:06 | 51.50413 | -0.08895 | 2045 ft | 93 kts | 60° |
| 2026-04-30 11:06 | 51.50745 | -0.08017 | 2038 ft | 91 kts | 77° |
| 2026-04-30 11:06 | 51.50754 | -0.07012 | 2052 ft | 92 kts | 87° |
| 2026-04-30 11:07 | 51.50789 | -0.05981 | 2050 ft | 93 kts | 82° |
| 2026-04-30 11:07 | 51.50813 | -0.04961 | 2033 ft | 93 kts | 86° |
| 2026-04-30 11:07 | 51.50815 | -0.03911 | 1901 ft | 97 kts | 87° |
| 2026-04-30 11:07 | 51.50795 | -0.02814 | 1625 ft | 97 kts | 90° |
| 2026-04-30 11:08 | 51.50753 | -0.01729 | 1375 ft | 97 kts | 90° |
| 2026-04-30 11:08 | 51.50712 | -0.00642 | 1134 ft | 98 kts | 88° |
| 2026-04-30 11:08 | 51.50678 | 0.00454 | 898 ft | 97 kts | 89° |
| 2026-04-30 11:08 | 51.50648 | 0.01525 | 681 ft | 95 kts | 89° |
| 2026-04-30 11:09 | 51.50625 | 0.02585 | 459 ft | 98 kts | 92° |
| 2026-04-30 11:09 | 51.50584 | 0.03720 | 233 ft | 104 kts | 92° |
| 2026-04-30 11:09 | 51.50542 | 0.04880 | 34 ft | 98 kts | 92° |
| 2026-04-30 11:09 | 51.50516 | 0.05729 | 25 ft | 44 kts | 92° |
| 2026-04-30 11:10 | 51.50505 | 0.06015 | 25 ft | 14 kts | 111° |
| 2026-04-30 11:10 | 51.50430 | 0.05969 | 28 ft | 15 kts | 249° |
| 2026-04-30 11:10 | 51.50430 | 0.05794 | 25 ft | 16 kts | 274° |
| 2026-04-30 11:10 | 51.50436 | 0.05603 | 25 ft | 18 kts | 272° |
| 2026-04-30 11:11 | 51.50443 | 0.05395 | 25 ft | 19 kts | 272° |
| 2026-04-30 11:11 | 51.50449 | 0.05190 | 25 ft | 18 kts | 273° |
| 2026-04-30 11:11 | 51.50462 | 0.04993 | 28 ft | 18 kts | 274° |
| 2026-04-30 11:11 | 51.50468 | 0.04793 | 25 ft | 18 kts | 273° |
| 2026-04-30 11:12 | 51.50438 | 0.04653 | 27 ft | 5 kts | 212° |
| 2026-04-30 11:12 | 51.50438 | 0.04639 | 25 ft | 2 kts | 304° |
| 2026-04-30 11:12 | 51.50443 | 0.04632 | 25 ft | 0 kts | 317° |